KDKK/DKK METAR and TAF weather

Enter ICAO airport designator
Station Type Date Time Source
KDKK METAR 2020/07/11 19:32 UTC NOAA

KDKK 111932Z AUTO 29014G25KT 10SM -RA OVC012 22/20 A2966 RMK AO2 PK WND 28027/1911 P0003 T02220200


Station Type Date Time Source
KDKK Decoded METAR 2020/07/11 19:32 UTC NOAA

CHAUTAUQUA COUNTY/DUNKIRK, NY, United States (KDKK) 42-30N 079-17W 202M
Jul 11, 2020 - 03:32 PM EDT / 2020.07.11 1932 UTC
Wind: from the WNW (290 degrees) at 16 MPH (14 KT) gusting to 29 MPH (25 KT):0
Visibility: 10 mile(s):0
Sky conditions: overcast
Weather: light rain
Precipitation last hour: 0.03 inches
Temperature: 72.0 F (22.2 C)
Dew Point: 68.0 F (20.0 C)
Relative Humidity: 87%
Pressure (altimeter): 29.66 in. Hg (1004 hPa)
ob: KDKK 111932Z AUTO 29014G25KT 10SM -RA OVC012 22/20 A2966 RMK AO2 PK WND 28027/1911 P0003 T02220200
cycle: 19

Station Type Date Time Source
KDKK TAF UTC NOAA

Error!

Example: see airport list